createdAt,value
2019-02-18T00:02:36.140Z,98910.16
2019-02-18T00:05:23.571Z,98904.33
2019-02-18T00:08:11.193Z,98899.94
2019-02-18T00:10:58.622Z,98902.04
2019-02-18T00:13:46.348Z,98893.52
2019-02-18T00:16:33.465Z,98900.27
2019-02-18T00:19:20.888Z,98902.21
2019-02-18T00:22:08.009Z,98901.38
2019-02-18T00:24:55.738Z,98897.10
2019-02-18T00:27:42.855Z,98906.41
2019-02-18T00:30:30.291Z,98899.92
2019-02-18T00:33:17.652Z,98900.84
2019-02-18T00:36:04.838Z,98889.75
2019-02-18T00:38:52.549Z,98893.61
2019-02-18T00:41:40.184Z,98890.59
2019-02-18T00:44:27.607Z,98894.23
2019-02-18T00:47:14.901Z,98895.31
2019-02-18T00:50:02.044Z,98900.14
2019-02-18T00:52:49.577Z,98893.80
2019-02-18T00:55:37.299Z,98897.80
2019-02-18T00:58:25.034Z,98892.92
2019-02-18T01:01:12.662Z,98891.27
2019-02-18T01:04:00.599Z,98895.06
2019-02-18T01:06:47.815Z,98898.44
2019-02-18T01:09:35.239Z,98899.03
2019-02-18T01:12:23.283Z,98898.36
2019-02-18T01:15:14.905Z,98894.76
2019-02-18T01:18:02.227Z,98888.66
2019-02-18T01:20:49.958Z,98892.89
2019-02-18T01:23:37.070Z,98888.85
2019-02-18T01:26:24.601Z,98895.42
2019-02-18T01:29:12.342Z,98890.75
2019-02-18T01:32:00.069Z,98892.34
2019-02-18T01:34:47.587Z,98886.44
2019-02-18T01:37:44.845Z,98888.61
2019-02-18T01:40:24.176Z,98884.32
2019-02-18T01:43:11.605Z,98884.12
2019-02-18T01:45:58.921Z,98881.16
2019-02-18T01:48:46.142Z,98879.72
2019-02-18T01:51:33.262Z,98875.63
2019-02-18T01:54:20.944Z,98871.08
2019-02-18T01:57:08.413Z,98874.67
2019-02-18T01:59:55.838Z,98873.37
2019-02-18T02:02:43.603Z,98863.88
2019-02-18T02:05:30.687Z,98861.53
2019-02-18T02:08:18.317Z,98860.77
2019-02-18T02:11:05.947Z,98859.38
2019-02-18T02:13:53.270Z,98858.19
2019-02-18T02:16:41.312Z,98857.71
2019-02-18T02:19:28.841Z,98864.42
2019-02-18T02:22:16.049Z,98855.82
2019-02-18T02:25:03.883Z,98852.35
2019-02-18T02:27:51.412Z,98856.80
2019-02-18T02:30:38.734Z,98850.19
2019-02-18T02:33:25.955Z,98852.97
2019-02-18T02:36:13.685Z,98853.50
2019-02-18T02:39:00.901Z,98850.02
2019-02-18T02:41:48.225Z,98853.83
2019-02-18T02:44:35.349Z,98852.04
2019-02-18T02:47:22.564Z,98850.41
2019-02-18T02:50:10.124Z,98843.53
2019-02-18T02:52:57.623Z,98845.92
2019-02-18T02:55:45.465Z,98848.55
2019-02-18T02:58:32.974Z,98839.58
2019-02-18T03:01:20.602Z,98842.86
2019-02-18T03:04:08.129Z,98841.09
2019-02-18T03:06:55.450Z,98816.17
2019-02-18T03:09:42.467Z,98838.95
2019-02-18T03:12:29.993Z,98838.12
2019-02-18T03:15:17.837Z,98838.74
2019-02-18T03:18:05.350Z,98839.83
2019-02-18T03:20:52.776Z,98839.16
2019-02-18T03:23:39.900Z,98834.94
2019-02-18T03:26:27.992Z,98832.70
2019-02-18T03:29:33.802Z,98837.23
2019-02-18T03:32:21.314Z,98835.69
2019-02-18T03:35:08.743Z,98832.50
2019-02-18T03:37:56.471Z,98835.72
2019-02-18T03:40:44.199Z,98827.22
2019-02-18T03:43:31.942Z,98828.42
2019-02-18T03:46:18.895Z,98829.36
2019-02-18T03:49:06.475Z,98828.31
2019-02-18T03:51:54.320Z,98829.15
2019-02-18T03:54:41.422Z,98832.59
2019-02-18T03:57:29.359Z,98830.71
2019-02-18T04:00:17.296Z,98833.31
2019-02-18T04:03:05.045Z,98840.30
2019-02-18T04:05:52.246Z,98840.56
2019-02-18T04:08:43.246Z,98837.38
2019-02-18T04:11:29.556Z,98833.97
2019-02-18T04:14:16.682Z,98838.23
2019-02-18T04:17:04.408Z,98832.20
2019-02-18T04:19:52.388Z,98837.52
2019-02-18T04:22:39.772Z,98834.73
2019-02-18T04:25:27.091Z,98834.16
2019-02-18T04:28:14.813Z,98845.15
2019-02-18T04:31:02.240Z,98838.64
2019-02-18T04:33:49.356Z,98845.15
2019-02-18T04:36:36.885Z,98843.37
2019-02-18T04:39:24.407Z,98838.03
2019-02-18T04:42:11.636Z,98836.72
2019-02-18T04:44:59.357Z,98840.98
2019-02-18T04:47:46.475Z,98840.73
2019-02-18T04:50:33.900Z,98837.45
2019-02-18T04:53:21.425Z,98835.64
2019-02-18T04:56:08.750Z,98830.11
2019-02-18T04:58:56.173Z,98836.39
2019-02-18T05:01:43.398Z,98834.02
2019-02-18T05:04:30.718Z,98828.11
2019-02-18T05:07:18.035Z,98827.03
2019-02-18T05:10:08.426Z,98827.64
2019-02-18T05:12:55.866Z,98826.52
2019-02-18T05:15:42.970Z,98828.83
2019-02-18T05:18:30.806Z,98824.17
2019-02-18T05:21:18.446Z,98826.30
2019-02-18T05:24:05.855Z,98820.52
2019-02-18T05:26:52.974Z,98825.22
2019-02-18T05:29:42.755Z,98817.51
2019-02-18T05:32:30.278Z,98824.27
2019-02-18T05:35:17.749Z,98822.50
2019-02-18T05:38:05.333Z,98818.63
2019-02-18T05:40:52.657Z,98818.89
2019-02-18T05:43:40.800Z,98813.09
2019-02-18T05:46:28.743Z,98817.00
2019-02-18T05:49:16.059Z,98816.17
2019-02-18T05:52:03.681Z,98819.03
2019-02-18T05:54:51.412Z,98816.90
2019-02-18T05:57:38.942Z,98816.56
2019-02-18T06:00:26.669Z,98818.48
2019-02-18T06:03:15.652Z,98814.46
2019-02-18T06:06:03.155Z,98814.59
2019-02-18T06:08:50.580Z,98820.88
2019-02-18T06:11:37.695Z,98819.83
2019-02-18T06:14:25.230Z,98826.66
2019-02-18T06:17:13.042Z,98817.70
2019-02-18T06:20:02.124Z,98822.29
2019-02-18T06:22:49.645Z,98821.72
2019-02-18T06:25:37.379Z,98818.50
2019-02-18T06:28:25.115Z,98828.94
2019-02-18T06:31:12.429Z,98822.91
2019-02-18T06:33:59.958Z,98827.03
2019-02-18T06:36:47.690Z,98829.86
2019-02-18T06:39:41.189Z,98832.24
2019-02-18T06:42:24.276Z,98828.66
2019-02-18T06:45:30.234Z,98833.98
2019-02-18T06:48:34.348Z,98839.88
2019-02-18T06:51:21.876Z,98841.94
2019-02-18T06:54:09.306Z,98845.83
2019-02-18T06:56:58.373Z,98836.72
2019-02-18T06:59:47.529Z,98840.13
2019-02-18T07:02:36.899Z,98843.93
2019-02-18T07:05:35.181Z,98852.42
2019-02-18T07:08:24.245Z,98849.58
2019-02-18T07:11:18.939Z,98849.83
2019-02-18T07:14:06.364Z,98851.80
2019-02-18T07:16:54.202Z,98850.00
2019-02-18T07:19:41.206Z,98845.59
2019-02-18T07:22:28.834Z,98842.37
2019-02-18T07:25:16.157Z,98848.01
2019-02-18T07:28:03.589Z,98851.14
2019-02-18T07:30:51.517Z,98854.60
2019-02-18T07:33:39.248Z,98853.67
2019-02-18T07:36:26.694Z,98861.75
2019-02-18T07:39:14.095Z,98859.91
2019-02-18T07:42:01.952Z,98855.61
2019-02-18T07:44:50.001Z,98863.39
2019-02-18T07:47:39.590Z,98858.76
2019-02-18T07:50:27.130Z,98858.84
2019-02-18T07:53:14.902Z,98850.75
2019-02-18T07:56:01.915Z,98852.10
2019-02-18T07:58:49.442Z,98846.83
2019-02-18T08:01:36.559Z,98849.56
2019-02-18T08:04:23.993Z,98850.75
2019-02-18T08:07:12.644Z,98849.08
2019-02-18T08:10:00.300Z,98843.19
2019-02-18T08:12:51.465Z,98837.86
2019-02-18T08:15:41.176Z,98836.26
2019-02-18T08:18:28.681Z,98835.98
2019-02-18T08:21:16.209Z,98838.59
2019-02-18T08:24:03.323Z,98837.88
2019-02-18T08:26:51.069Z,98834.27
2019-02-18T08:29:38.477Z,98829.98
2019-02-18T08:32:26.212Z,98826.13
2019-02-18T08:35:14.240Z,98826.67
2019-02-18T08:38:01.973Z,98827.97
2019-02-18T08:40:51.968Z,98827.33
2019-02-18T08:43:44.616Z,98821.88
2019-02-18T08:46:33.588Z,98828.18
2019-02-18T08:49:21.200Z,98822.02
2019-02-18T08:52:08.939Z,98825.48
2019-02-18T08:54:56.995Z,98817.98
2019-02-18T08:57:44.907Z,98815.18
2019-02-18T09:00:32.668Z,98818.45
2019-02-18T09:03:19.858Z,98813.62
2019-02-18T09:06:07.289Z,98809.44
2019-02-18T09:08:54.722Z,98816.28
2019-02-18T09:11:42.132Z,98810.84
2019-02-18T09:14:31.074Z,98812.47
2019-02-18T09:17:18.693Z,98817.75
2019-02-18T09:20:08.461Z,98815.78
2019-02-18T09:22:57.869Z,98821.48
2019-02-18T09:25:47.145Z,98819.41
2019-02-18T09:28:34.456Z,98818.11
2019-02-18T09:31:23.424Z,98814.49
2019-02-18T09:34:11.693Z,98813.22
2019-02-18T09:36:59.305Z,98805.12
2019-02-18T09:39:47.018Z,98807.01
2019-02-18T09:42:34.550Z,98799.52
2019-02-18T09:45:22.586Z,98797.55
2019-02-18T09:48:09.905Z,98803.66
2019-02-18T09:50:59.909Z,98798.58
2019-02-18T09:53:46.393Z,98798.98
2019-02-18T09:56:36.829Z,98792.75
2019-02-18T09:59:23.394Z,98792.00
2019-02-18T10:02:11.122Z,98791.83
2019-02-18T10:04:58.580Z,98794.44
2019-02-18T10:07:46.177Z,98788.81
2019-02-18T10:10:33.610Z,98786.16
2019-02-18T10:13:21.332Z,98783.70
2019-02-18T10:16:08.759Z,98788.92
2019-02-18T10:18:56.588Z,98791.00
2019-02-18T10:21:43.605Z,98788.45
2019-02-18T10:24:31.028Z,98782.45
2019-02-18T10:27:18.042Z,98784.38
2019-02-18T10:30:07.456Z,98780.97
2019-02-18T10:32:54.323Z,98775.21
2019-02-18T10:35:41.546Z,98773.88
2019-02-18T10:38:29.069Z,98770.41
2019-02-18T10:41:19.109Z,98764.67
2019-02-18T10:44:05.969Z,98765.33
2019-02-18T10:46:53.390Z,98758.27
2019-02-18T10:49:40.763Z,98754.69
2019-02-18T10:52:28.339Z,98749.84
2019-02-18T10:55:16.070Z,98745.23
2019-02-18T10:58:03.394Z,98737.27
2019-02-18T11:00:51.158Z,98729.87
2019-02-18T11:03:39.142Z,98728.50
2019-02-18T11:06:26.689Z,98725.24
2019-02-18T11:09:14.114Z,98720.16
2019-02-18T11:12:01.740Z,98723.17
2019-02-18T11:14:49.168Z,98707.70
2019-02-18T11:17:39.142Z,98701.59
2019-02-18T11:20:26.266Z,98690.11
2019-02-18T11:23:13.691Z,98693.44
2019-02-18T11:26:01.628Z,98692.66
2019-02-18T11:28:49.357Z,98686.66
2019-02-18T11:31:36.783Z,98687.73
2019-02-18T11:34:24.103Z,98684.32
2019-02-18T11:37:13.745Z,98677.07
2019-02-18T11:40:00.799Z,98678.50
2019-02-18T11:42:48.530Z,98671.70
2019-02-18T11:45:36.157Z,98661.99
2019-02-18T11:48:23.580Z,98656.22
2019-02-18T11:51:11.530Z,98651.37
2019-02-18T11:53:58.739Z,98646.28
2019-02-18T11:56:46.678Z,98643.31
2019-02-18T11:59:34.101Z,98643.16
2019-02-18T12:02:21.965Z,98640.34
2019-02-18T12:05:11.245Z,98633.25
2019-02-18T12:07:58.531Z,98625.91
2019-02-18T12:10:45.941Z,98619.69
2019-02-18T12:13:33.366Z,98610.84
2019-02-18T12:16:21.103Z,98607.18
2019-02-18T12:19:08.112Z,98602.34
2019-02-18T12:21:55.537Z,98601.59
2019-02-18T12:24:43.268Z,98596.03
2019-02-18T12:27:32.119Z,98595.69
2019-02-18T12:30:19.917Z,98587.26
2019-02-18T12:33:07.282Z,98585.98
2019-02-18T12:35:55.114Z,98583.11
2019-02-18T12:38:42.750Z,98583.47
2019-02-18T12:41:30.271Z,98577.06
2019-02-18T12:44:17.803Z,98572.20
2019-02-18T12:47:06.245Z,98561.07
2019-02-18T12:49:54.150Z,98556.98
2019-02-18T12:52:42.016Z,98551.16
2019-02-18T12:55:29.907Z,98551.52
2019-02-18T12:58:17.667Z,98548.53
2019-02-18T13:01:06.808Z,98549.23
2019-02-18T13:03:53.867Z,98545.50
2019-02-18T13:06:41.392Z,98540.98
2019-02-18T13:09:29.230Z,98538.25
2019-02-18T13:12:16.957Z,98536.75
2019-02-18T13:15:06.655Z,98530.41
2019-02-18T13:17:53.953Z,98527.27
2019-02-18T13:20:41.788Z,98532.44
2019-02-18T13:23:29.722Z,98524.04
2019-02-18T13:26:16.740Z,98516.06
2019-02-18T13:29:04.367Z,98509.22
2019-02-18T13:31:51.895Z,98510.29
2019-02-18T13:34:39.522Z,98510.41
2019-02-18T13:37:27.356Z,98516.41
2019-02-18T13:40:16.625Z,98513.88
2019-02-18T13:43:04.050Z,98511.23
2019-02-18T13:45:51.679Z,98511.37
2019-02-18T13:48:38.791Z,98511.02
2019-02-18T13:51:26.936Z,98508.77
2019-02-18T13:54:14.463Z,98517.65
2019-02-18T13:57:09.770Z,98513.53
2019-02-18T13:59:51.156Z,98514.64
2019-02-18T14:02:39.006Z,98506.40
2019-02-18T14:05:26.205Z,98512.05
2019-02-18T14:08:13.731Z,98507.31
2019-02-18T14:11:01.097Z,98506.19
2019-02-18T14:13:48.582Z,98504.06
2019-02-18T14:16:36.210Z,98498.13
2019-02-18T14:19:24.047Z,98503.33
2019-02-18T14:22:12.083Z,98494.56
2019-02-18T14:24:59.818Z,98493.06
2019-02-18T14:27:47.851Z,98492.60
2019-02-18T14:30:35.584Z,98494.05
2019-02-18T14:33:23.219Z,98493.77
2019-02-18T14:36:10.743Z,98490.40
2019-02-18T14:38:58.478Z,98483.52
2019-02-18T14:41:46.108Z,98485.87
2019-02-18T14:44:33.530Z,98484.28
2019-02-18T14:47:21.259Z,98481.09
2019-02-18T14:50:10.113Z,98478.95
2019-02-18T14:52:58.360Z,98481.63
2019-02-18T14:55:46.091Z,98480.39
2019-02-18T14:58:33.616Z,98481.55
2019-02-18T15:01:20.939Z,98481.71
2019-02-18T15:04:08.873Z,98482.22
2019-02-18T15:06:56.211Z,98480.73
2019-02-18T15:09:43.930Z,98480.80
2019-02-18T15:12:33.278Z,98483.52
2019-02-18T15:15:21.087Z,98481.67
2019-02-18T15:18:09.682Z,98484.20
2019-02-18T15:20:56.697Z,98478.35
2019-02-18T15:23:43.817Z,98480.72
2019-02-18T15:26:31.743Z,98469.27
2019-02-18T15:29:19.382Z,98470.95
2019-02-18T15:32:07.056Z,98473.26
2019-02-18T15:34:54.740Z,98471.41
2019-02-18T15:37:42.062Z,98479.55
2019-02-18T15:40:29.799Z,98475.19
2019-02-18T15:43:17.423Z,98467.62
2019-02-18T15:46:05.874Z,98464.48
2019-02-18T15:48:53.499Z,98462.19
2019-02-18T15:51:40.923Z,98457.92
2019-02-18T15:54:28.570Z,98455.39
2019-02-18T15:57:16.078Z,98458.55
2019-02-18T16:00:04.735Z,98461.83
2019-02-18T16:02:52.155Z,98453.77
2019-02-18T16:05:39.580Z,98453.86
2019-02-18T16:08:27.213Z,98451.56
2019-02-18T16:11:15.768Z,98440.16
2019-02-18T16:14:03.388Z,98443.57
2019-02-18T16:16:51.325Z,98435.20
2019-02-18T16:19:38.853Z,98437.65
2019-02-18T16:22:26.481Z,98439.98
2019-02-18T16:25:16.577Z,98437.36
2019-02-18T16:28:03.701Z,98436.80
2019-02-18T16:30:51.214Z,98438.73
2019-02-18T16:33:38.945Z,98439.84
2019-02-18T16:36:26.065Z,98432.63
2019-02-18T16:39:13.903Z,98432.63
2019-02-18T16:42:01.727Z,98434.14
2019-02-18T16:44:49.463Z,98431.76
2019-02-18T16:47:37.138Z,98422.92
2019-02-18T16:50:25.042Z,98423.30
2019-02-18T16:53:12.825Z,98428.71
2019-02-18T16:56:00.698Z,98431.28
2019-02-18T16:58:48.424Z,98436.73
2019-02-18T17:01:36.502Z,98442.48
2019-02-18T17:04:23.992Z,98439.63
2019-02-18T17:07:11.831Z,98436.47
2019-02-18T17:09:59.676Z,98446.72
2019-02-18T17:12:48.728Z,98442.56
2019-02-18T17:15:36.041Z,98441.84
2019-02-18T17:18:23.785Z,98441.31
2019-02-18T17:21:11.726Z,98446.46
2019-02-18T17:23:59.450Z,98445.27
2019-02-18T17:26:47.070Z,98442.29
2019-02-18T17:29:34.399Z,98445.61
2019-02-18T17:32:21.904Z,98448.34
2019-02-18T17:35:12.093Z,98443.94
2019-02-18T17:37:59.538Z,98446.48
2019-02-18T17:40:47.159Z,98438.86
2019-02-18T17:43:34.183Z,98439.77
2019-02-18T17:46:22.015Z,98438.64
2019-02-18T17:49:09.650Z,98436.45
2019-02-18T17:51:57.267Z,98433.58
2019-02-18T17:54:44.388Z,98428.97
2019-02-18T17:57:31.912Z,98429.80
2019-02-18T18:00:23.957Z,98430.87
2019-02-18T18:03:11.272Z,98428.12
2019-02-18T18:05:58.894Z,98427.20
2019-02-18T18:08:47.660Z,98427.61
2019-02-18T18:11:35.590Z,98425.61
2019-02-18T18:14:23.003Z,98422.94
2019-02-18T18:17:10.333Z,98427.72
2019-02-18T18:19:57.553Z,98428.02
2019-02-18T18:22:44.978Z,98413.05
2019-02-18T18:25:32.811Z,98413.02
2019-02-18T18:28:20.438Z,98415.05
2019-02-18T18:31:08.174Z,98413.50
2019-02-18T18:33:55.726Z,98409.08
2019-02-18T18:36:43.019Z,98406.78
2019-02-18T18:39:30.959Z,98402.02
2019-02-18T18:42:19.002Z,98398.08
2019-02-18T18:45:09.552Z,98403.48
2019-02-18T18:47:58.661Z,98404.17
2019-02-18T18:50:46.183Z,98397.33
2019-02-18T18:53:33.921Z,98398.02
2019-02-18T18:56:21.131Z,98394.11
2019-02-18T18:59:08.660Z,98402.48
2019-02-18T19:01:56.394Z,98399.19
2019-02-18T19:04:44.229Z,98397.23
2019-02-18T19:07:32.365Z,98392.63
2019-02-18T19:10:20.303Z,98392.80
2019-02-18T19:13:07.725Z,98396.42
2019-02-18T19:15:55.353Z,98397.89
2019-02-18T19:18:42.985Z,98389.53
2019-02-18T19:21:30.508Z,98394.94
2019-02-18T19:24:18.036Z,98378.70
2019-02-18T19:27:06.040Z,98397.88
2019-02-18T19:29:53.396Z,98387.22
2019-02-18T19:32:40.617Z,98399.66
2019-02-18T19:35:28.451Z,98391.79
2019-02-18T19:38:16.081Z,98391.14
2019-02-18T19:41:03.670Z,98395.58
2019-02-18T19:43:50.933Z,98389.51
2019-02-18T19:46:38.355Z,98385.58
2019-02-18T19:49:25.173Z,98390.34
2019-02-18T19:52:12.634Z,98388.33
2019-02-18T19:55:00.288Z,98387.19
2019-02-18T19:57:47.947Z,98393.84
2019-02-18T20:00:37.426Z,98394.91
2019-02-18T20:03:24.537Z,98400.54
2019-02-18T20:06:12.067Z,98404.33
2019-02-18T20:08:59.613Z,98398.12
2019-02-18T20:11:47.115Z,98409.59
2019-02-18T20:14:34.949Z,98403.52
2019-02-18T20:17:23.706Z,98406.66
2019-02-18T20:20:15.488Z,98404.00
2019-02-18T20:23:03.176Z,98403.02
2019-02-18T20:25:51.056Z,98404.14
2019-02-18T20:28:38.389Z,98402.85
2019-02-18T20:31:25.978Z,98403.84
2019-02-18T20:34:13.687Z,98403.83
2019-02-18T20:37:01.337Z,98400.43
2019-02-18T20:39:48.844Z,98395.22
2019-02-18T20:42:37.017Z,98398.02
2019-02-18T20:45:24.705Z,98406.20
2019-02-18T20:48:12.472Z,98399.31
2019-02-18T20:51:00.709Z,98400.19
2019-02-18T20:53:47.933Z,98398.38
2019-02-18T20:56:35.638Z,98399.86
2019-02-18T20:59:28.540Z,98396.59
2019-02-18T21:02:16.219Z,98395.75
2019-02-18T21:05:24.737Z,98392.80
2019-02-18T21:08:12.676Z,98390.48
2019-02-18T21:11:00.718Z,98381.94
2019-02-18T21:13:48.141Z,98379.16
2019-02-18T21:16:35.871Z,98378.66
2019-02-18T21:19:22.986Z,98378.97
2019-02-18T21:22:10.106Z,98371.77
2019-02-18T21:24:57.528Z,98374.25
2019-02-18T21:27:45.470Z,98374.73
2019-02-18T21:30:32.991Z,98373.42
2019-02-18T21:33:20.415Z,98366.38
2019-02-18T21:36:08.144Z,98370.64
2019-02-18T21:38:55.678Z,98365.24
2019-02-18T21:41:43.712Z,98371.80
2019-02-18T21:44:31.242Z,98363.13
2019-02-18T21:47:19.177Z,98375.73
2019-02-18T21:50:08.567Z,98375.65
2019-02-18T21:52:56.274Z,98380.38
2019-02-18T21:55:43.904Z,98378.59
2019-02-18T21:58:31.430Z,98377.77
2019-02-18T22:01:18.956Z,98364.60
2019-02-18T22:04:06.588Z,98364.09
2019-02-18T22:06:54.008Z,98369.83
2019-02-18T22:09:41.023Z,98370.63
2019-02-18T22:12:28.755Z,98369.83
2019-02-18T22:15:16.564Z,98367.84
2019-02-18T22:18:04.116Z,98364.38
2019-02-18T22:20:51.847Z,98370.52
2019-02-18T22:23:39.274Z,98372.42
2019-02-18T22:26:26.597Z,98382.07
2019-02-18T22:29:14.019Z,98378.41
2019-02-18T22:32:01.646Z,98382.30
2019-02-18T22:34:48.865Z,98370.35
2019-02-18T22:37:57.287Z,98366.39
2019-02-18T22:40:44.810Z,98367.33
2019-02-18T22:43:32.232Z,98366.05
2019-02-18T22:46:19.662Z,98366.43
2019-02-18T22:49:07.517Z,98367.05
2019-02-18T22:51:54.403Z,98378.20
2019-02-18T22:54:42.041Z,98373.94
2019-02-18T22:57:30.174Z,98371.48
2019-02-18T23:00:37.400Z,98368.19
2019-02-18T23:03:25.091Z,98367.88
2019-02-18T23:06:13.986Z,98368.98
2019-02-18T23:09:01.355Z,98365.51
2019-02-18T23:11:48.869Z,98367.09
2019-02-18T23:14:36.273Z,98370.19
2019-02-18T23:17:23.752Z,98373.50
2019-02-18T23:20:11.225Z,98367.64
2019-02-18T23:22:58.497Z,98372.25
2019-02-18T23:25:45.868Z,98371.25
2019-02-18T23:28:33.958Z,98368.05
2019-02-18T23:31:21.586Z,98367.63
2019-02-18T23:34:09.010Z,98368.30
2019-02-18T23:36:56.536Z,98372.40
2019-02-18T23:39:43.922Z,98369.41
2019-02-18T23:42:31.487Z,98369.87
2019-02-18T23:45:19.118Z,98370.49
2019-02-18T23:48:06.721Z,98367.22
2019-02-18T23:50:54.171Z,98365.26
2019-02-18T23:53:41.288Z,98365.62
2019-02-18T23:56:28.917Z,98365.60
2019-02-18T23:59:16.339Z,98363.47
